WetterOnline ( http://www.wetteronline.de )

Wetter aktuell Wadgassen

Aktuelles Wetter: Berus (367m)

6-stündlich | Neueste Meldungen
Ortszeit Temperatur Wetter
Mo, 25.03. 7:00 2.1° C wolkig
Mo, 25.03. 1:00 4.5° C wolkenlos
So, 24.03. 19:00 9.7° C bewölkt
So, 24.03. 13:00 12.1° C wolkenlos
So, 24.03. 7:00 4.4° C wolkenlos
So, 24.03. 1:00 5.4° C wolkenlos
Sa, 23.03. 19:00 11.2° C wolkenlos
Sa, 23.03. 13:00 14.5° C wolkenlos
Ortszeit Temperatur Wetter
Mo, 25.03. 9:30 4.6° C bewölkt
Mo, 25.03. 9:20 4.6° C bewölkt
Mo, 25.03. 9:10 4.2° C bewölkt
Mo, 25.03. 9:00 3.6° C bedeckt
Mo, 25.03. 8:50 3.6° C bedeckt
Mo, 25.03. 8:40 3.2° C bedeckt
Mo, 25.03. 8:30 3.0° C bedeckt
Mo, 25.03. 8:00 2.7° C bewölkt
Mo, 25.03. 7:30 2.4° C bewölkt
Mo, 25.03. 7:00 2.1° C wolkig
Mo, 25.03. 6:30 1.7° C fast wolkenlos
Ortszeit Relative Feuchte Sichtweite
Mo, 25.03. 7:00 74% 30 km
Mo, 25.03. 1:00 68% 35 km
So, 24.03. 19:00 66% 24 km
So, 24.03. 13:00 61% 10 km
So, 24.03. 7:00 87% 6 km
So, 24.03. 1:00 82% 5.0 km
Sa, 23.03. 19:00 67% 11 km
Sa, 23.03. 13:00 44% 17 km
Ortszeit Relative Feuchte Sichtweite
Mo, 25.03. 9:30 73% 35 km
Mo, 25.03. 9:20 73% -
Mo, 25.03. 9:10 73% -
Mo, 25.03. 9:00 74% 40 km
Mo, 25.03. 8:50 74% -
Mo, 25.03. 8:40 74% -
Mo, 25.03. 8:30 74% 40 km
Mo, 25.03. 8:00 74% 35 km
Mo, 25.03. 7:30 74% -
Mo, 25.03. 7:00 74% 30 km
Mo, 25.03. 6:30 75% 30 km
Ortszeit Niederschlagsmenge Niederschlagsart
Mo, 25.03. 7:00 0.0 l/m2 in 12 Std. -
Mo, 25.03. 1:00 0.0 l/m2 in 6 Std. -
So, 24.03. 19:00 0.0 l/m2 in 12 Std. -
So, 24.03. 13:00 0.0 l/m2 in 6 Std. -
So, 24.03. 7:00 0.0 l/m2 in 12 Std. -
So, 24.03. 1:00 0.0 l/m2 in 6 Std. -
Sa, 23.03. 19:00 0.0 l/m2 in 12 Std. -
Sa, 23.03. 13:00 0.0 l/m2 in 6 Std. -
Ortszeit Niederschlagsmenge Niederschlagsart
Mo, 25.03. 9:30 0.0 l/m2 in 1 Std. -
Mo, 25.03. 9:20 keine Meldung -
Mo, 25.03. 9:10 keine Meldung -
Mo, 25.03. 9:00 0.0 l/m2 in 1 Std. -
Mo, 25.03. 8:50 keine Meldung -
Mo, 25.03. 8:40 keine Meldung -
Mo, 25.03. 8:30 0.0 l/m2 in 1 Std. -
Mo, 25.03. 8:00 0.0 l/m2 in 1 Std. -
Mo, 25.03. 7:30 0.0 l/m2 in 1 Std. -
Mo, 25.03. 7:00 0.0 l/m2 in 1 Std. -
Mo, 25.03. 6:30 0.0 l/m2 in 1 Std. -
Ortszeit Stärke Spitze Richtung
km/h Bft. km/h Grad Sektor
Mo, 25.03. 7:00 18 3 25 250° W
Mo, 25.03. 1:00 11 2 22 310° NW
So, 24.03. 19:00 9 2 30 10° N
So, 24.03. 13:00 7 2 22 330° NW
So, 24.03. 7:00 14 3 22 50° NO
So, 24.03. 1:00 14 3 40 40° NO
Sa, 23.03. 19:00 22 4 36 360° N
Sa, 23.03. 13:00 9 2 20 360° N
Ortszeit Stärke Spitze Richtung
km/h Bft. km/h Grad Sektor
Mo, 25.03. 9:30 18 3 32 270° W
Mo, 25.03. 9:20 18 3 - 270° W
Mo, 25.03. 9:10 17 3 - 260° W
Mo, 25.03. 9:00 13 3 24 230° SW
Mo, 25.03. 8:50 13 3 - 230° SW
Mo, 25.03. 8:40 13 3 - 240° SW
Mo, 25.03. 8:30 14 3 25 250° W
Mo, 25.03. 8:00 11 2 25 240° SW
Mo, 25.03. 7:30 18 3 25 250° W
Mo, 25.03. 7:00 18 3 25 250° W
Mo, 25.03. 6:30 14 3 22 250° W
Ortszeit Untergrenze Bedeckung Gattung
total tief tief mittel hoch
Mo, 25.03. 7:00 990 m 5/8 7/8 - - -
Mo, 25.03. 1:00 - 0/8 0/8 - - -
So, 24.03. 19:00 1410 m 7/8 7/8 - - -
So, 24.03. 13:00 - 0/8 0/8 - - -
So, 24.03. 7:00 - 0/8 0/8 - - -
So, 24.03. 1:00 - 0/8 0/8 - - -
Sa, 23.03. 19:00 - 0/8 0/8 - - -
Sa, 23.03. 13:00 - 0/8 0/8 - - -
Ortszeit Bedeckungsgrad in Achtel und Wolkenuntergrenze
Mo, 25.03. 9:30 6(1800m) 8(6000m) 8(6600m)
Mo, 25.03. 9:20 6(1800m) 8(6000m) 8(6600m)
Mo, 25.03. 9:10 6(1800m) 8(6000m)
Mo, 25.03. 9:00 8(1500m) 8(6000m)
Mo, 25.03. 8:50 8(1500m)
Mo, 25.03. 8:40 8(1500m)
Mo, 25.03. 8:30 1(1170m) 8(1440m)
Mo, 25.03. 8:00 7(1290m)
Mo, 25.03. 7:30 1(960m) 7(1440m) 7(1500m)
Mo, 25.03. 7:00 2(990m) 5(1440m) 7(1500m)
Mo, 25.03. 6:30 2(1500m)
Ortszeit Luftdruck NN (hPa) Tendenz (hPa in 3 Std.)
Mo, 25.03. 7:00 1025 - 0,4
Mo, 25.03. 1:00 1025 - 0,5
So, 24.03. 19:00 1025 + 0,5
So, 24.03. 13:00 1025 - 0,7
So, 24.03. 7:00 1027 - 0,3
So, 24.03. 1:00 1028 - 0,9
Sa, 23.03. 19:00 1027 0,0
Sa, 23.03. 13:00 1028 - 0,2
Ortszeit Luftdruck NN (hPa) Tendenz (hPa in 3 Std.)
Mo, 25.03. 9:30 1025 + 0,9
Mo, 25.03. 9:20 1025 keine Meldung
Mo, 25.03. 9:10 1025 keine Meldung
Mo, 25.03. 9:00 1025 + 0,3
Mo, 25.03. 8:50 1025 keine Meldung
Mo, 25.03. 8:40 1025 keine Meldung
Mo, 25.03. 8:30 1025 + 0,1
Mo, 25.03. 8:00 1025 0,0
Mo, 25.03. 7:30 1025 - 0,3
Mo, 25.03. 7:00 1025 - 0,4
Mo, 25.03. 6:30 1025 - 0,7
Ortszeit Schneehöhe (cm)
Mo, 25.03. 7:00 0
Mo, 25.03. 1:00 0
So, 24.03. 19:00 0
So, 24.03. 13:00 -
So, 24.03. 7:00 0
So, 24.03. 1:00 0
Sa, 23.03. 19:00 0
Sa, 23.03. 13:00 0
Ortszeit Schneehöhe (cm)
Mo, 25.03. 9:30 0
Mo, 25.03. 9:20 0
Mo, 25.03. 9:10 0
Mo, 25.03. 9:00 0
Mo, 25.03. 8:50 0
Mo, 25.03. 8:40 0
Mo, 25.03. 8:30 0
Mo, 25.03. 8:00 0
Mo, 25.03. 7:30 0
Mo, 25.03. 7:00 0
Mo, 25.03. 6:30 0
Link zu dieser Seite / Seite empfehlen

Das Wetter in ...